createdAt,value
2019-04-23T00:02:56.661Z,79.11
2019-04-23T00:05:39.462Z,79.53
2019-04-23T00:07:59.182Z,79.29
2019-04-23T00:10:30.321Z,80.42
2019-04-23T00:12:59.397Z,79.72
2019-04-23T00:15:51.720Z,79.60
2019-04-23T00:18:27.611Z,80.29
2019-04-23T00:20:47.922Z,80.23
2019-04-23T00:23:25.778Z,81.03
2019-04-23T00:28:36.068Z,81.04
2019-04-23T00:31:13.728Z,80.64
2019-04-23T00:33:37.361Z,80.60
2019-04-23T00:36:19.646Z,80.97
2019-04-23T00:38:47.314Z,81.56
2019-04-23T00:41:15.979Z,81.20
2019-04-23T00:43:52.745Z,81.51
2019-04-23T00:46:22.137Z,81.59
2019-04-23T00:51:22.756Z,81.88
2019-04-23T00:53:57.331Z,81.93
2019-04-23T00:59:00.407Z,83.72
2019-04-23T01:01:38.885Z,82.68
2019-04-23T01:04:05.817Z,83.01
2019-04-23T01:06:32.469Z,83.57
2019-04-23T01:09:02.210Z,82.96
2019-04-23T01:11:39.247Z,82.22
2019-04-23T01:14:11.529Z,82.53
2019-04-23T01:16:37.408Z,83.44
2019-04-23T01:19:35.183Z,83.78
2019-04-23T01:21:38.842Z,83.18
2019-04-23T01:24:15.852Z,83.15
2019-04-23T01:30:04.675Z,83.36
2019-04-23T01:32:36.949Z,83.69
2019-04-23T01:35:17.581Z,83.28
2019-04-23T01:37:41.168Z,83.30
2019-04-23T01:40:22.002Z,83.49
2019-04-23T01:53:08.598Z,84.50
2019-04-23T01:55:28.009Z,84.67
2019-04-23T01:58:20.186Z,85.37
2019-04-23T02:00:53.199Z,85.59
2019-04-23T02:03:09.369Z,86.55
2019-04-23T02:08:09.116Z,87.50
2019-04-23T02:13:16.593Z,88.99
2019-04-23T02:15:53.384Z,89.33
2019-04-23T02:18:23.100Z,89.52
2019-04-23T02:20:59.497Z,88.69
2019-04-23T02:23:57.355Z,88.91
2019-04-23T02:26:20.167Z,89.67
2019-04-23T02:29:03.571Z,89.08
2019-04-23T02:34:17.126Z,90.02
2019-04-23T02:36:57.103Z,90.32
2019-04-23T02:42:23.292Z,91.19
2019-04-23T02:44:34.249Z,92.65
2019-04-23T02:47:17.124Z,94.06
2019-04-23T02:49:44.314Z,93.25
2019-04-23T02:57:20.214Z,94.75
2019-04-23T03:02:37.061Z,93.96
2019-04-23T03:04:57.749Z,95.73
2019-04-23T03:23:44.297Z,97.58
2019-04-23T03:26:14.091Z,98.71
2019-04-23T03:32:48.410Z,100.00
2019-04-23T03:37:02.220Z,100.00
2019-04-23T03:38:48.646Z,100.00
2019-04-23T03:44:01.609Z,100.00
2019-04-23T03:48:52.942Z,99.86
2019-04-23T03:51:34.276Z,100.00
2019-04-23T03:54:16.298Z,100.00
2019-04-23T03:56:52.607Z,100.00
2019-04-23T03:59:15.522Z,100.00
2019-04-23T04:09:33.145Z,100.00
2019-04-23T04:11:34.672Z,98.25
2019-04-23T04:32:01.049Z,93.40
2019-04-23T04:39:42.857Z,91.79
2019-04-23T04:42:10.453Z,91.43
2019-04-23T04:49:51.686Z,90.89
2019-04-23T04:54:39.772Z,90.43
2019-04-23T04:57:30.187Z,90.15
2019-04-23T05:05:02.359Z,86.64
2019-04-23T05:07:27.600Z,85.58
2019-04-23T05:10:21.855Z,83.98
2019-04-23T05:15:04.791Z,75.14
2019-04-23T05:20:24.017Z,70.91
2019-04-23T05:23:02.794Z,68.02
2019-04-23T05:25:17.529Z,68.89
2019-04-23T05:27:56.524Z,68.61
2019-04-23T05:30:25.119Z,66.10
2019-04-23T05:32:51.916Z,66.28
2019-04-23T05:35:39.909Z,66.36
2019-04-23T05:38:05.335Z,66.54
2019-04-23T05:40:30.600Z,67.49
2019-04-23T05:45:18.478Z,67.14
2019-04-23T05:47:53.420Z,67.11
2019-04-23T05:50:30.501Z,68.38
2019-04-23T05:52:54.141Z,67.75
2019-04-23T05:55:34.022Z,66.10
2019-04-23T05:57:44.569Z,66.31
2019-04-23T06:00:26.209Z,64.76
2019-04-23T06:02:56.910Z,66.17
2019-04-23T06:07:49.351Z,65.63
2019-04-23T06:10:19.733Z,67.66
2019-04-23T06:12:50.689Z,66.96
2019-04-23T06:15:20.600Z,66.43
2019-04-23T06:17:54.163Z,66.34
2019-04-23T06:20:31.623Z,66.24
2019-04-23T06:22:56.062Z,66.89
2019-04-23T06:27:57.562Z,66.18
2019-04-23T06:30:25.787Z,65.89
2019-04-23T06:32:55.172Z,66.05
2019-04-23T06:35:23.832Z,65.90
2019-04-23T06:38:12.484Z,66.00
2019-04-23T06:40:25.207Z,64.89
2019-04-23T06:43:05.352Z,65.73
2019-04-23T06:45:32.126Z,64.64
2019-04-23T06:48:13.714Z,64.59
2019-04-23T06:50:35.471Z,63.21
2019-04-23T06:52:59.508Z,63.65
2019-04-23T06:55:38.720Z,62.48
2019-04-23T06:58:15.102Z,62.53
2019-04-23T07:00:42.036Z,61.42
2019-04-23T07:03:14.802Z,62.10
2019-04-23T07:06:11.973Z,61.75
2019-04-23T07:08:44.396Z,61.23
2019-04-23T07:11:08.096Z,60.21
2019-04-23T07:13:44.580Z,59.34
2019-04-23T07:15:58.481Z,59.54
2019-04-23T07:18:29.273Z,58.59
2019-04-23T07:21:06.505Z,57.95
2019-04-23T07:23:38.056Z,57.00
2019-04-23T07:26:21.262Z,57.80
2019-04-23T07:28:37.273Z,57.46
2019-04-23T07:31:18.355Z,56.96
2019-04-23T07:33:45.922Z,57.45
2019-04-23T07:36:08.684Z,56.68
2019-04-23T07:38:47.352Z,56.76
2019-04-23T07:41:32.863Z,57.02
2019-04-23T07:44:08.583Z,55.20
2019-04-23T07:46:33.883Z,54.91
2019-04-23T07:48:55.984Z,54.32
2019-04-23T07:51:29.301Z,54.51
2019-04-23T07:54:07.972Z,54.62
2019-04-23T07:56:27.596Z,53.94
2019-04-23T07:59:05.722Z,54.28
2019-04-23T08:01:27.120Z,53.27
2019-04-23T08:04:01.947Z,53.80
2019-04-23T08:06:31.980Z,52.22
2019-04-23T08:09:04.133Z,52.62
2019-04-23T08:18:57.594Z,51.59
2019-04-23T08:21:45.956Z,51.26
2019-04-23T08:24:18.235Z,51.81
2019-04-23T08:26:56.190Z,51.31
2019-04-23T08:29:26.529Z,51.38
2019-04-23T08:32:02.522Z,50.92
2019-04-23T08:34:39.668Z,50.34
2019-04-23T08:37:04.951Z,50.54
2019-04-23T08:39:37.232Z,49.57
2019-04-23T08:42:21.786Z,49.74
2019-04-23T08:44:38.850Z,49.90
2019-04-23T08:49:40.334Z,48.80
2019-04-23T08:57:24.028Z,48.04
2019-04-23T08:59:47.355Z,49.50
2019-04-23T09:03:16.816Z,48.34
2019-04-23T09:04:45.594Z,47.91
2019-04-23T09:09:45.357Z,47.76
2019-04-23T09:12:16.795Z,47.56
2019-04-23T09:14:38.219Z,47.29
2019-04-23T09:17:10.653Z,47.67
2019-04-23T09:19:51.890Z,48.62
2019-04-23T09:22:14.445Z,47.38
2019-04-23T09:24:44.893Z,47.16
2019-04-23T09:27:21.104Z,46.15
2019-04-23T09:29:47.217Z,46.47
2019-04-23T09:32:22.405Z,46.40
2019-04-23T09:37:48.812Z,46.45
2019-04-23T09:40:31.489Z,45.26
2019-04-23T09:45:48.110Z,44.93
2019-04-23T09:48:06.671Z,44.40
2019-04-23T09:50:41.971Z,44.25
2019-04-23T09:58:11.751Z,43.80
2019-04-23T10:03:07.615Z,44.56
2019-04-23T10:05:30.980Z,44.04
2019-04-23T10:08:01.611Z,43.73
2019-04-23T10:10:22.608Z,43.44
2019-04-23T10:12:51.197Z,43.36
2019-04-23T10:15:26.250Z,43.05
2019-04-23T10:17:50.054Z,42.91
2019-04-23T10:20:18.648Z,43.19
2019-04-23T10:22:48.263Z,42.19
2019-04-23T10:25:17.273Z,42.61
2019-04-23T10:27:52.969Z,42.60
2019-04-23T10:30:17.545Z,41.88
2019-04-23T10:32:47.565Z,42.25
2019-04-23T10:35:25.619Z,42.21
2019-04-23T10:37:52.889Z,41.56
2019-04-23T10:40:22.948Z,42.10
2019-04-23T10:42:48.382Z,41.13
2019-04-23T10:45:51.339Z,41.12
2019-04-23T10:54:03.460Z,41.06
2019-04-23T10:56:22.352Z,41.37
2019-04-23T10:58:38.666Z,40.85
2019-04-23T11:01:14.761Z,41.07
2019-04-23T11:03:56.546Z,40.99
2019-04-23T11:06:26.853Z,41.63
2019-04-23T11:08:40.644Z,40.88
2019-04-23T11:11:23.581Z,40.77
2019-04-23T11:14:05.404Z,39.93
2019-04-23T11:16:45.804Z,40.60
2019-04-23T11:21:28.550Z,40.49
2019-04-23T11:24:04.842Z,40.53
2019-04-23T11:26:28.599Z,40.47
2019-04-23T11:28:52.090Z,40.12
2019-04-23T11:34:01.907Z,39.72
2019-04-23T11:36:49.959Z,40.50
2019-04-23T11:41:34.273Z,40.67
2019-04-23T11:43:57.656Z,41.42
2019-04-23T11:46:51.303Z,40.17
2019-04-23T11:49:22.387Z,40.37
2019-04-23T11:56:51.457Z,40.80
2019-04-23T11:59:06.761Z,41.17
2019-04-23T12:01:42.800Z,39.85
2019-04-23T12:04:14.076Z,41.17
2019-04-23T12:06:45.954Z,40.40
2019-04-23T12:09:25.941Z,40.49
2019-04-23T12:27:06.187Z,40.34
2019-04-23T12:34:59.425Z,39.40
2019-04-23T12:40:15.038Z,39.54
2019-04-23T12:45:18.000Z,39.33
2019-04-23T12:57:40.275Z,38.22
2019-04-23T13:00:05.276Z,38.65
2019-04-23T13:02:44.593Z,38.59
2019-04-23T13:05:12.157Z,38.41
2019-04-23T13:10:09.932Z,37.29
2019-04-23T13:12:47.984Z,38.05
2019-04-23T13:15:13.935Z,37.94
2019-04-23T13:25:19.582Z,37.92
2019-04-23T13:28:02.764Z,37.78
2019-04-23T13:30:23.168Z,37.24
2019-04-23T13:32:52.176Z,37.82
2019-04-23T13:37:58.932Z,38.18
2019-04-23T13:40:24.207Z,38.56
2019-04-23T13:42:52.532Z,38.02
2019-04-23T13:45:49.737Z,38.39
2019-04-23T13:48:06.127Z,37.86
2019-04-23T13:53:12.420Z,38.73
2019-04-23T13:55:18.336Z,38.46
2019-04-23T14:00:36.301Z,38.54
2019-04-23T14:02:50.346Z,38.88
2019-04-23T14:05:33.129Z,39.40
2019-04-23T14:08:02.661Z,39.54
2019-04-23T14:13:17.917Z,39.98
2019-04-23T14:15:42.867Z,40.06
2019-04-23T14:18:20.842Z,40.07
2019-04-23T14:20:35.294Z,40.50
2019-04-23T14:23:14.148Z,40.91
2019-04-23T14:25:40.255Z,41.75
2019-04-23T14:33:12.026Z,41.79
2019-04-23T14:35:40.228Z,42.09
2019-04-23T14:40:54.160Z,41.47
2019-04-23T14:45:52.578Z,42.55
2019-04-23T14:50:46.913Z,42.53
2019-04-23T14:55:57.187Z,42.99
2019-04-23T15:01:08.405Z,43.26
2019-04-23T15:03:27.138Z,43.46
2019-04-23T15:06:04.870Z,43.66
2019-04-23T15:11:06.818Z,44.08
2019-04-23T15:13:22.768Z,44.36
2019-04-23T15:16:03.076Z,44.26
2019-04-23T15:18:55.856Z,44.46
2019-04-23T15:24:00.775Z,44.92
2019-04-23T15:28:34.128Z,45.22
2019-04-23T15:34:00.929Z,45.30
2019-04-23T15:36:36.883Z,45.55
2019-04-23T15:39:07.977Z,45.75
2019-04-23T15:43:57.738Z,45.66
2019-04-23T15:46:25.432Z,45.77
2019-04-23T15:49:01.488Z,46.12
2019-04-23T15:53:56.674Z,45.92
2019-04-23T16:01:31.952Z,46.22
2019-04-23T16:03:29.017Z,46.16
2019-04-23T16:05:57.403Z,46.27
2019-04-23T16:11:33.273Z,46.67
2019-04-23T16:14:10.221Z,46.47
2019-04-23T16:16:30.053Z,46.96
2019-04-23T16:19:19.046Z,46.98
2019-04-23T16:24:19.528Z,47.80
2019-04-23T16:32:04.238Z,48.53
2019-04-23T16:34:27.265Z,48.60
2019-04-23T16:36:54.890Z,49.11
2019-04-23T16:39:16.552Z,49.57
2019-04-23T16:41:54.790Z,50.00
2019-04-23T16:44:29.456Z,50.14
2019-04-23T16:49:34.720Z,50.81
2019-04-23T16:51:45.898Z,50.66
2019-04-23T16:54:25.097Z,50.92
2019-04-23T16:59:18.651Z,51.65
2019-04-23T17:02:01.591Z,52.30
2019-04-23T17:06:54.985Z,51.95
2019-04-23T17:09:40.351Z,52.24
2019-04-23T17:11:59.141Z,53.00
2019-04-23T17:14:21.351Z,53.50
2019-04-23T17:16:59.769Z,54.10
2019-04-23T17:19:26.214Z,54.35
2019-04-23T17:21:58.180Z,55.72
2019-04-23T17:26:56.707Z,57.05
2019-04-23T17:31:45.422Z,58.13
2019-04-23T17:34:30.783Z,58.33
2019-04-23T17:37:07.298Z,59.13
2019-04-23T17:39:57.909Z,59.08
2019-04-23T17:42:19.723Z,59.51
2019-04-23T17:55:13.329Z,61.69
2019-04-23T17:57:37.622Z,62.11
2019-04-23T18:02:55.630Z,63.84
2019-04-23T18:12:43.848Z,66.61
2019-04-23T18:15:13.073Z,67.29
2019-04-23T18:17:43.387Z,67.80
2019-04-23T18:20:24.887Z,68.05
2019-04-23T18:23:00.784Z,68.67
2019-04-23T18:25:37.689Z,69.50
2019-04-23T18:28:03.500Z,70.20
2019-04-23T18:30:40.722Z,70.68
2019-04-23T18:35:36.043Z,71.14
2019-04-23T18:40:58.888Z,72.29
2019-04-23T18:46:04.339Z,73.42
2019-04-23T18:56:05.991Z,78.09
2019-04-23T18:58:47.555Z,78.96
2019-04-23T19:01:05.629Z,80.12
2019-04-23T19:03:48.125Z,80.88
2019-04-23T19:06:23.222Z,81.81
2019-04-23T19:11:48.579Z,83.21
2019-04-23T19:14:30.511Z,83.97
2019-04-23T19:16:41.590Z,84.74
2019-04-23T19:19:01.422Z,85.74
2019-04-23T19:21:57.305Z,86.78
2019-04-23T19:24:09.502Z,87.38
2019-04-23T19:31:46.045Z,89.27
2019-04-23T19:36:49.076Z,89.41
2019-04-23T19:39:19.333Z,90.30
2019-04-23T19:41:57.717Z,90.39
2019-04-23T19:44:08.965Z,90.99
2019-04-23T19:49:15.063Z,91.83
2019-04-23T19:54:16.698Z,92.12
2019-04-23T19:59:15.624Z,93.61
2019-04-23T20:01:53.333Z,93.29
2019-04-23T20:04:04.135Z,93.30
2019-04-23T20:09:30.273Z,94.65
2019-04-23T20:11:50.552Z,94.49
2019-04-23T20:14:09.558Z,94.46
2019-04-23T20:17:21.377Z,95.21
2019-04-23T20:19:23.758Z,95.53
2019-04-23T20:22:06.194Z,95.61
2019-04-23T20:26:59.865Z,96.09
2019-04-23T20:36:53.258Z,97.78
2019-04-23T20:39:33.029Z,99.00
2019-04-23T20:42:10.893Z,98.86
2019-04-23T20:44:39.562Z,99.45
2019-04-23T20:49:42.369Z,99.63
2019-04-23T20:52:05.018Z,99.80
2019-04-23T20:54:42.947Z,100.00
2019-04-23T20:57:31.526Z,100.00
2019-04-23T20:59:57.252Z,100.00
2019-04-23T21:05:19.555Z,100.00
2019-04-23T21:12:50.737Z,100.00
2019-04-23T21:15:10.209Z,100.00
2019-04-23T21:17:46.845Z,100.00
2019-04-23T21:20:14.451Z,100.00
2019-04-23T21:22:29.815Z,100.00
2019-04-23T21:25:06.094Z,100.00
2019-04-23T21:27:57.544Z,100.00
2019-04-23T21:30:03.535Z,100.00
2019-04-23T21:32:41.003Z,100.00
2019-04-23T21:37:49.982Z,100.00
2019-04-23T21:40:42.455Z,100.00
2019-04-23T21:43:02.785Z,100.00
2019-04-23T21:45:31.899Z,100.00
2019-04-23T21:48:02.427Z,99.60
2019-04-23T21:50:39.464Z,99.63
2019-04-23T21:52:56.393Z,98.86
2019-04-23T21:55:35.249Z,100.00
2019-04-23T22:00:34.673Z,97.73
2019-04-23T22:03:02.431Z,97.41
2019-04-23T22:05:37.815Z,97.18
2019-04-23T22:10:26.274Z,96.89
2019-04-23T22:15:34.560Z,95.85
2019-04-23T22:23:05.140Z,95.86
2019-04-23T22:25:36.837Z,96.27
2019-04-23T22:30:30.679Z,96.03
2019-04-23T22:35:30.166Z,95.97
2019-04-23T22:38:06.750Z,96.34
2019-04-23T22:40:25.917Z,96.98
2019-04-23T22:50:31.115Z,98.42
2019-04-23T22:53:02.026Z,98.63
2019-04-23T22:55:34.870Z,99.04
2019-04-23T22:58:04.726Z,99.19
2019-04-23T23:00:36.080Z,100.00
2019-04-23T23:03:24.340Z,100.00
2019-04-23T23:08:24.093Z,100.00
2019-04-23T23:13:33.154Z,100.00
2019-04-23T23:16:06.857Z,100.00
2019-04-23T23:21:04.122Z,100.00
2019-04-23T23:23:21.518Z,100.00
2019-04-23T23:26:02.428Z,100.00
2019-04-23T23:28:28.709Z,100.00
2019-04-23T23:31:04.051Z,100.00
2019-04-23T23:35:58.954Z,99.52
2019-04-23T23:38:36.693Z,99.32
2019-04-23T23:41:12.696Z,98.81
2019-04-23T23:48:31.381Z,98.59
2019-04-23T23:51:17.107Z,95.91
2019-04-23T23:53:39.758Z,94.26
2019-04-23T23:56:04.802Z,94.28
2019-04-23T23:58:55.297Z,94.80
